Dauntless Aviation
Greetings, Guest! To participate, [sign up for a free account] or [log in]
Airports North America United States Colorado
98CO

NCMC HELIPORT

GREELEY, CO, USA

Airport Info

Location

Latitude / Longitude: 40°24'53"N / 104°42'28"W
  40°24.9'N / 104°42.4667'W
  40.4150 / -104.7078
Elevation: 4882 ft. (estimated)
Variation: 12E (1985)
From city: 00 miles N of GREELEY, CO

Operations

Facility use: Private
Sectional chart: DENVER
Control tower: no
Boundary ARTCC: DENVER
FSS: DENVER [1-800-WX-BRIEF]
Segmented circle: no

Communications

Nearby radio navigation aids

VOR radial/distance VOR name Freq Var
GLL 233oT/8.9 GILL VORTAC 114.20 13E
DVV 353oT/31.5 MILE HIGH VORTAC 114.70 11E
BJC 33oT/36.1 JEFFCO VOR/DME 115.40 11E
DEN 357oT/36.2 DENVER VOR/DME 117.90 11E
 
NDB name Hdg/Dist Freq Var ID

Services

Runway Information

Helipad H1

Dimensions: 40 x 40 ft.
Surface: PORTLAND CEMENT CONCRETE,NO SPECIAL SURFACE TREATMENT
 

Additional Remarks

Instrument Procedures

No published instrument procedures available
Topographic chart at:
Satellite photo at:
Airport distance calculator
From:
Weather Reports

METAR

KGXY
4.2nm NE
KGXY 042355Z AUTO 02010KT 10SM TS CLR 23/16 A2993 RMK AO1 LTG DSNT NE 10350 20220 403500160 54000
KFNL
14.3nm W
KFNL 042355Z AUTO 17008KT 10SM CLR 28/11 A2993 RMK AO1 LTG DSNT E TSE10B15E30 10330 20270 403300160 54000
KLMO
25.8nm SW
KLMO 042355Z AUTO 21009KT 10SM CLR 32/11 A2996 RMK AO2 T03200114
KEIK
28.6nm S
KEIK 042354Z AUTO 22008KT 10SM CLR 29/10 A2996 RMK AO2 T02940103
KBDU
33.3nm SW
KBDU 042359Z AUTO 24007KT 10SM SCT110 27/10 A2997 RMK AO2
KDEN
35.0nm SE
KDEN 042353Z 24017G24KT 10SM FEW090 SCT130 BKN200 31/08 A2996 RMK AO2 SLP060 OCNL LTGICCG DSNT S CB DSNT S MOV SE T03060078 10356 20306 56004

TAF

KDEN
35.0nm SE
KDEN 042324Z 0500/0606 26010KT P6SM VCTS SCT090CB BKN140 TEMPO 0500/0501 VRB20G30KT FM050100 16008KT P6SM SCT090 BKN140 FM050600 21010KT P6SM FEW090 SCT140 FM051300 24006KT P6SM SCT140 BKN200 FM051800 12008KT P6SM SCT090 BKN140 FM052100 25010KT P6SM SCT090 BKN140 PROB30 0522/0601 VRB20G30KT -TSRA BKN080CB FM060300 36012KT P6SM VCSH SCT090 BKN140
KBJC
35.3nm S
KBJC 042324Z 0500/0524 32006KT P6SM VCTS SCT090CB BKN140 FM050100 32007KT P6SM SCT090 BKN140 FM050400 27007KT P6SM FEW090 SCT140 FM051100 VRB05KT P6SM SCT140 BKN200 FM051800 12008KT P6SM SCT090 BKN140 FM052100 25010KT P6SM SCT090 BKN140 PROB30 0522/0524 VRB20G30KT -TSRA BKN080CB
Safelog

 

Dauntless Aviation

© 2007-2015 Dauntless Aviation, all rights reserved
Information provided via PilotNav comes from a variety of official and unofficial data sources. As errors are possible, do not use PilotNav for primary flight planning purposes. Verify any information that you receive via PilotNav with current and canonical charts and other official documents. The material in this database is subject to database copyrights held by Dauntless Aviation and may not be copied without the express permission of Dauntless Aviation - licenses for use of part of all of this data are available for purchase; enquire via the Dauntless Aviation helpdesk. A number of mechanisms and markers exist in the database to protect against and identify infringement / copyright. Automated queries against this website are stictly prohibited, and all activity is logged and analyzed.